sensor_id;sensor_type;location;lat;lon;timestamp;pressure;altitude;pressure_sealevel;temperature;humidity
32759;BME280;19125;52.360;9.974;2023-02-19T00:00:58;-128.16;;;-145.17;66.76
32759;BME280;19125;52.360;9.974;2023-02-19T00:03:25;-873.56;;;-145.17;67.20
32759;BME280;19125;52.360;9.974;2023-02-19T00:05:50;-1618.84;;;-145.17;67.45
32759;BME280;19125;52.360;9.974;2023-02-19T00:08:16;-2115.59;;;-145.17;67.39
32759;BME280;19125;52.360;9.974;2023-02-19T00:10:41;-2363.94;;;-145.17;67.49
32759;BME280;19125;52.360;9.974;2023-02-19T00:13:06;-2860.63;;;-145.17;67.53
32759;BME280;19125;52.360;9.974;2023-02-19T00:15:32;-3108.94;;;-145.17;67.30
32759;BME280;19125;52.360;9.974;2023-02-19T00:17:57;-3357.22;;;-145.17;67.44
32759;BME280;19125;52.360;9.974;2023-02-19T00:20:23;-3605.50;;;-145.17;67.64
32759;BME280;19125;52.360;9.974;2023-02-19T00:22:49;-3853.78;;;-145.17;67.52
32759;BME280;19125;52.360;9.974;2023-02-19T00:25:14;-4102.00;;;-145.17;67.55
32759;BME280;19125;52.360;9.974;2023-02-19T00:27:40;-4350.25;;;-145.17;67.56
32759;BME280;19125;52.360;9.974;2023-02-19T00:30:05;-4350.25;;;-145.17;67.21
32759;BME280;19125;52.360;9.974;2023-02-19T00:32:31;-4350.25;;;-145.17;67.84
32759;BME280;19125;52.360;9.974;2023-02-19T00:34:56;-4350.25;;;-145.17;67.66
32759;BME280;19125;52.360;9.974;2023-02-19T00:37:22;-4350.25;;;-145.17;67.72
32759;BME280;19125;52.360;9.974;2023-02-19T00:39:47;-4350.25;;;-145.17;67.47
32759;BME280;19125;52.360;9.974;2023-02-19T00:42:12;-4350.25;;;-145.17;67.37
32759;BME280;19125;52.360;9.974;2023-02-19T00:44:38;-4598.47;;;-145.17;67.54
32759;BME280;19125;52.360;9.974;2023-02-19T00:47:03;-4598.47;;;-145.17;67.45
32759;BME280;19125;52.360;9.974;2023-02-19T00:49:28;-4598.47;;;-145.17;67.68
32759;BME280;19125;52.360;9.974;2023-02-19T00:51:54;-4846.66;;;-145.17;67.62
32759;BME280;19125;52.360;9.974;2023-02-19T00:54:19;-5094.84;;;-145.17;67.69
32759;BME280;19125;52.360;9.974;2023-02-19T00:56:47;-5591.16;;;-145.17;67.85
32759;BME280;19125;52.360;9.974;2023-02-19T00:59:13;-6087.41;;;-145.17;67.80
32759;BME280;19125;52.360;9.974;2023-02-19T01:01:39;-6831.66;;;-145.17;68.21
32759;BME280;19125;52.360;9.974;2023-02-19T01:04:04;-7575.78;;;-145.17;68.38
32759;BME280;19125;52.360;9.974;2023-02-19T01:06:30;-8567.72;;;-145.17;68.73
32759;BME280;19125;52.360;9.974;2023-02-19T01:08:56;-9559.38;;;-145.17;68.86
32759;BME280;19125;52.360;9.974;2023-02-19T01:11:22;-10550.78;;;-145.17;69.50
32759;BME280;19125;52.360;9.974;2023-02-19T01:13:47;-11294.19;;;-145.17;69.80
32759;BME280;19125;52.360;9.974;2023-02-19T01:16:15;-12037.44;;;-145.17;69.92
32759;BME280;19125;52.360;9.974;2023-02-19T01:18:41;-13028.22;;;-145.17;70.09
32759;BME280;19125;52.360;9.974;2023-02-19T01:21:10;-13771.13;;;-145.17;70.17
32759;BME280;19125;52.360;9.974;2023-02-19T01:23:36;-14266.31;;;-145.17;70.71
32759;BME280;19125;52.360;9.974;2023-02-19T01:26:04;-14761.44;;;-145.17;71.09
32759;BME280;19125;52.360;9.974;2023-02-19T01:28:30;-15009.00;;;-145.17;70.79
32759;BME280;19125;52.360;9.974;2023-02-19T01:31:00;-15010.44;;;-145.17;71.33
32759;BME280;19125;52.360;9.974;2023-02-19T01:33:25;-15010.44;;;-145.17;71.38
32759;BME280;19125;52.360;9.974;2023-02-19T01:35:50;-15010.44;;;-145.17;71.85
32759;BME280;19125;52.360;9.974;2023-02-19T01:38:16;-15010.44;;;-145.17;72.14
32759;BME280;19125;52.360;9.974;2023-02-19T01:40:41;-15010.44;;;-145.17;72.41
32759;BME280;19125;52.360;9.974;2023-02-19T01:43:14;-15010.44;;;-145.17;72.71
32759;BME280;19125;52.360;9.974;2023-02-19T01:45:43;-15010.44;;;-145.17;72.92
32759;BME280;19125;52.360;9.974;2023-02-19T01:50:50;-15010.44;;;-145.17;73.54
32759;BME280;19125;52.360;9.974;2023-02-19T01:53:21;-15010.44;;;-145.17;73.78
32759;BME280;19125;52.360;9.974;2023-02-19T01:55:49;-15010.44;;;-145.17;73.80
32759;BME280;19125;52.360;9.974;2023-02-19T01:58:16;-15010.44;;;-145.17;73.66
32759;BME280;19125;52.360;9.974;2023-02-19T02:00:42;-15010.44;;;-145.17;73.10
32759;BME280;19125;52.360;9.974;2023-02-19T02:03:07;-15010.44;;;-145.17;73.73
32759;BME280;19125;52.360;9.974;2023-02-19T02:05:41;-15010.44;;;-145.17;73.81
32759;BME280;19125;52.360;9.974;2023-02-19T02:08:11;-15010.44;;;-145.17;73.56
32759;BME280;19125;52.360;9.974;2023-02-19T02:10:56;-15010.44;;;-145.17;73.21
32759;BME280;19125;52.360;9.974;2023-02-19T02:13:22;-15010.44;;;-145.17;73.33
32759;BME280;19125;52.360;9.974;2023-02-19T02:15:58;-15010.44;;;-145.17;72.67
32759;BME280;19125;52.360;9.974;2023-02-19T02:21:12;-15010.44;;;-145.17;72.45
32759;BME280;19125;52.360;9.974;2023-02-19T02:26:42;-15010.44;;;-145.17;72.86
32759;BME280;19125;52.360;9.974;2023-02-19T02:31:56;-15010.44;;;-145.17;72.73
32759;BME280;19125;52.360;9.974;2023-02-19T02:34:38;-15010.44;;;-145.17;72.52
32759;BME280;19125;52.360;9.974;2023-02-19T02:37:06;-15010.44;;;-145.17;72.41
32759;BME280;19125;52.360;9.974;2023-02-19T02:39:35;-15010.44;;;-145.17;72.75
32759;BME280;19125;52.360;9.974;2023-02-19T02:42:02;-15010.44;;;-145.17;72.22
32759;BME280;19125;52.360;9.974;2023-02-19T02:44:46;-15010.44;;;-145.17;72.79
32759;BME280;19125;52.360;9.974;2023-02-19T02:47:36;-15010.44;;;-145.17;72.82
32759;BME280;19125;52.360;9.974;2023-02-19T02:50:08;-15010.44;;;-145.17;73.05
32759;BME280;19125;52.360;9.974;2023-02-19T02:52:38;-15010.44;;;-145.17;73.12
32759;BME280;19125;52.360;9.974;2023-02-19T02:55:25;-15010.44;;;-145.17;73.63
32759;BME280;19125;52.360;9.974;2023-02-19T02:57:54;-15010.44;;;-145.17;73.42
32759;BME280;19125;52.360;9.974;2023-02-19T03:00:19;-15010.44;;;-145.17;73.23
32759;BME280;19125;52.360;9.974;2023-02-19T03:02:48;-15010.44;;;-145.17;73.63
32759;BME280;19125;52.360;9.974;2023-02-19T03:05:20;-15010.44;;;-145.17;73.46
32759;BME280;19125;52.360;9.974;2023-02-19T03:10:47;-15010.44;;;-145.17;73.63
32759;BME280;19125;52.360;9.974;2023-02-19T03:13:26;-15010.44;;;-145.17;74.14
32759;BME280;19125;52.360;9.974;2023-02-19T03:16:16;-15010.44;;;-145.17;74.21
32759;BME280;19125;52.360;9.974;2023-02-19T03:19:02;-15010.44;;;-145.17;74.55
32759;BME280;19125;52.360;9.974;2023-02-19T03:21:52;-15010.44;;;-145.17;74.36
32759;BME280;19125;52.360;9.974;2023-02-19T03:24:23;-15010.44;;;-145.17;74.20
32759;BME280;19125;52.360;9.974;2023-02-19T03:27:10;-15010.44;;;-145.17;73.87
32759;BME280;19125;52.360;9.974;2023-02-19T03:29:39;-15010.44;;;-145.17;73.24
32759;BME280;19125;52.360;9.974;2023-02-19T03:32:27;-15010.44;;;-145.17;73.60
32759;BME280;19125;52.360;9.974;2023-02-19T03:35:02;-15010.44;;;-145.17;73.78
32759;BME280;19125;52.360;9.974;2023-02-19T03:37:53;-15010.44;;;-145.17;73.62
32759;BME280;19125;52.360;9.974;2023-02-19T03:40:24;-15010.44;;;-145.17;73.83
32759;BME280;19125;52.360;9.974;2023-02-19T03:43:20;-15010.44;;;-145.17;73.57
32759;BME280;19125;52.360;9.974;2023-02-19T03:45:57;-15010.44;;;-145.17;73.65
32759;BME280;19125;52.360;9.974;2023-02-19T03:48:35;-15010.44;;;-145.17;73.74
32759;BME280;19125;52.360;9.974;2023-02-19T03:51:26;-15010.44;;;-145.17;74.09
32759;BME280;19125;52.360;9.974;2023-02-19T03:56:53;-15010.44;;;-145.17;74.24
32759;BME280;19125;52.360;9.974;2023-02-19T03:59:32;-15010.44;;;-145.17;74.14
32759;BME280;19125;52.360;9.974;2023-02-19T04:02:12;-15010.44;;;-145.17;74.57
32759;BME280;19125;52.360;9.974;2023-02-19T04:07:07;-15010.44;;;-145.17;74.40
32759;BME280;19125;52.360;9.974;2023-02-19T04:09:40;-15010.44;;;-145.17;74.94
32759;BME280;19125;52.360;9.974;2023-02-19T04:12:08;-15010.44;;;-145.17;74.71
32759;BME280;19125;52.360;9.974;2023-02-19T04:17:33;-15010.44;;;-145.17;74.90
32759;BME280;19125;52.360;9.974;2023-02-19T04:20:02;-15010.44;;;-145.17;75.14
32759;BME280;19125;52.360;9.974;2023-02-19T04:22:30;-15010.44;;;-145.17;74.85
32759;BME280;19125;52.360;9.974;2023-02-19T04:24:56;-15010.44;;;-145.17;74.91
32759;BME280;19125;52.360;9.974;2023-02-19T04:27:22;-15010.44;;;-145.17;74.98
32759;BME280;19125;52.360;9.974;2023-02-19T04:29:47;-15010.44;;;-145.17;75.12
32759;BME280;19125;52.360;9.974;2023-02-19T04:32:13;-15010.44;;;-145.17;74.98
32759;BME280;19125;52.360;9.974;2023-02-19T04:34:39;-15010.44;;;-145.17;74.98
32759;BME280;19125;52.360;9.974;2023-02-19T04:37:05;-15010.44;;;-145.17;75.06
32759;BME280;19125;52.360;9.974;2023-02-19T04:39:31;-15010.44;;;-145.17;75.08
32759;BME280;19125;52.360;9.974;2023-02-19T04:41:57;-15010.44;;;-145.17;75.05
32759;BME280;19125;52.360;9.974;2023-02-19T04:44:23;-15010.44;;;-145.17;75.13
32759;BME280;19125;52.360;9.974;2023-02-19T04:46:48;-15010.44;;;-145.17;75.21
32759;BME280;19125;52.360;9.974;2023-02-19T04:49:13;-15010.44;;;-145.17;75.21
32759;BME280;19125;52.360;9.974;2023-02-19T04:51:39;-15010.44;;;-145.17;75.17
32759;BME280;19125;52.360;9.974;2023-02-19T04:54:05;-15010.44;;;-145.17;75.50
32759;BME280;19125;52.360;9.974;2023-02-19T04:56:30;-15010.44;;;-145.17;75.19
32759;BME280;19125;52.360;9.974;2023-02-19T04:58:56;-15010.44;;;-145.17;75.05
32759;BME280;19125;52.360;9.974;2023-02-19T05:01:21;-15010.44;;;-145.17;75.23
32759;BME280;19125;52.360;9.974;2023-02-19T05:03:46;-15010.44;;;-145.17;75.20
32759;BME280;19125;52.360;9.974;2023-02-19T05:06:13;-15010.44;;;-145.17;75.26
32759;BME280;19125;52.360;9.974;2023-02-19T05:08:39;-15010.44;;;-145.17;75.44
32759;BME280;19125;52.360;9.974;2023-02-19T05:11:07;-15010.44;;;-145.17;75.26
32759;BME280;19125;52.360;9.974;2023-02-19T05:13:33;-15010.44;;;-145.17;74.99
32759;BME280;19125;52.360;9.974;2023-02-19T05:16:18;-15010.44;;;-145.17;75.25
32759;BME280;19125;52.360;9.974;2023-02-19T05:18:44;-15010.44;;;-145.17;75.16
32759;BME280;19125;52.360;9.974;2023-02-19T05:21:11;-15010.44;;;-145.17;74.99
32759;BME280;19125;52.360;9.974;2023-02-19T05:23:36;-15010.44;;;-145.17;75.15
32759;BME280;19125;52.360;9.974;2023-02-19T05:26:11;-15010.44;;;-145.17;74.73
32759;BME280;19125;52.360;9.974;2023-02-19T05:28:37;-15010.44;;;-145.17;75.09
32759;BME280;19125;52.360;9.974;2023-02-19T05:31:07;-15010.44;;;-145.17;74.61
32759;BME280;19125;52.360;9.974;2023-02-19T05:33:33;-15010.44;;;-145.17;74.91
32759;BME280;19125;52.360;9.974;2023-02-19T05:36:04;-15010.44;;;-145.17;74.70
32759;BME280;19125;52.360;9.974;2023-02-19T05:38:30;-15010.44;;;-145.17;74.98
32759;BME280;19125;52.360;9.974;2023-02-19T05:40:55;-15010.44;;;-145.17;74.88
32759;BME280;19125;52.360;9.974;2023-02-19T05:43:20;-15010.44;;;-145.17;75.07
32759;BME280;19125;52.360;9.974;2023-02-19T05:45:46;-15010.44;;;-145.17;74.71
32759;BME280;19125;52.360;9.974;2023-02-19T05:48:11;-15010.44;;;-145.17;74.65
32759;BME280;19125;52.360;9.974;2023-02-19T05:50:37;-15010.44;;;-145.17;74.89
32759;BME280;19125;52.360;9.974;2023-02-19T05:53:03;-15010.44;;;-145.17;75.08
32759;BME280;19125;52.360;9.974;2023-02-19T05:55:33;-15010.44;;;-145.17;75.13
32759;BME280;19125;52.360;9.974;2023-02-19T05:57:59;-15010.44;;;-145.17;75.17
32759;BME280;19125;52.360;9.974;2023-02-19T06:00:25;-15010.44;;;-145.17;74.85
32759;BME280;19125;52.360;9.974;2023-02-19T06:02:51;-15010.44;;;-145.17;74.45
32759;BME280;19125;52.360;9.974;2023-02-19T06:05:17;-15010.44;;;-145.17;74.44
32759;BME280;19125;52.360;9.974;2023-02-19T06:07:42;-15010.44;;;-145.17;74.49
32759;BME280;19125;52.360;9.974;2023-02-19T06:10:09;-15010.44;;;-145.17;74.61
32759;BME280;19125;52.360;9.974;2023-02-19T06:12:35;-15010.44;;;-145.17;74.46
32759;BME280;19125;52.360;9.974;2023-02-19T06:15:00;-15010.44;;;-145.17;74.40
32759;BME280;19125;52.360;9.974;2023-02-19T06:17:26;-15010.44;;;-145.17;74.20
32759;BME280;19125;52.360;9.974;2023-02-19T06:19:52;-15010.44;;;-145.17;74.52
32759;BME280;19125;52.360;9.974;2023-02-19T06:22:17;-15010.44;;;-145.17;74.45
32759;BME280;19125;52.360;9.974;2023-02-19T06:24:42;-15010.44;;;-145.17;74.57
32759;BME280;19125;52.360;9.974;2023-02-19T06:27:08;-15010.44;;;-145.17;74.32
32759;BME280;19125;52.360;9.974;2023-02-19T06:29:34;-15010.44;;;-145.17;74.55
32759;BME280;19125;52.360;9.974;2023-02-19T06:32:03;-15010.44;;;-145.17;74.46
32759;BME280;19125;52.360;9.974;2023-02-19T06:34:29;-15010.44;;;-145.17;74.42
32759;BME280;19125;52.360;9.974;2023-02-19T06:36:54;-15010.44;;;-145.17;74.46
32759;BME280;19125;52.360;9.974;2023-02-19T06:39:19;-15010.44;;;-145.17;74.51
32759;BME280;19125;52.360;9.974;2023-02-19T06:41:45;-15010.44;;;-145.17;74.15
32759;BME280;19125;52.360;9.974;2023-02-19T06:44:10;-15010.44;;;-145.17;74.18
32759;BME280;19125;52.360;9.974;2023-02-19T06:46:35;-15010.44;;;-145.17;74.24
32759;BME280;19125;52.360;9.974;2023-02-19T06:49:03;-15010.44;;;-145.17;73.95
32759;BME280;19125;52.360;9.974;2023-02-19T06:51:28;-15010.44;;;-145.17;74.05
32759;BME280;19125;52.360;9.974;2023-02-19T06:53:54;-15010.44;;;-145.17;74.08
32759;BME280;19125;52.360;9.974;2023-02-19T06:56:29;-15010.44;;;-145.17;73.79
32759;BME280;19125;52.360;9.974;2023-02-19T06:58:57;-15010.44;;;-145.17;73.99
32759;BME280;19125;52.360;9.974;2023-02-19T07:01:27;-15010.44;;;-145.17;74.09
32759;BME280;19125;52.360;9.974;2023-02-19T07:03:53;-15010.44;;;-145.17;73.93
32759;BME280;19125;52.360;9.974;2023-02-19T07:06:20;-15010.44;;;-145.17;74.05
32759;BME280;19125;52.360;9.974;2023-02-19T07:08:46;-15010.44;;;-145.17;73.97
32759;BME280;19125;52.360;9.974;2023-02-19T07:11:11;-15010.44;;;-145.17;74.28
32759;BME280;19125;52.360;9.974;2023-02-19T07:13:37;-15010.44;;;-145.17;74.06
32759;BME280;19125;52.360;9.974;2023-02-19T07:16:05;-15010.44;;;-145.17;74.16
32759;BME280;19125;52.360;9.974;2023-02-19T07:18:32;-15010.44;;;-145.17;74.16
32759;BME280;19125;52.360;9.974;2023-02-19T07:21:09;-15010.44;;;-145.17;73.85
32759;BME280;19125;52.360;9.974;2023-02-19T07:23:36;-15010.44;;;-145.17;73.86
32759;BME280;19125;52.360;9.974;2023-02-19T07:26:01;-15010.44;;;-145.17;73.55
32759;BME280;19125;52.360;9.974;2023-02-19T07:28:27;-15010.44;;;-145.17;73.58
32759;BME280;19125;52.360;9.974;2023-02-19T07:30:59;-15010.44;;;-145.17;73.68
32759;BME280;19125;52.360;9.974;2023-02-19T07:33:24;-15010.44;;;-145.17;73.93
32759;BME280;19125;52.360;9.974;2023-02-19T07:35:50;-15010.44;;;-145.17;74.00
32759;BME280;19125;52.360;9.974;2023-02-19T07:38:20;-15010.44;;;-145.17;73.83
32759;BME280;19125;52.360;9.974;2023-02-19T07:41:15;-15010.44;;;-145.17;73.87
32759;BME280;19125;52.360;9.974;2023-02-19T07:43:40;-15010.44;;;-145.17;73.72
32759;BME280;19125;52.360;9.974;2023-02-19T07:46:11;-15010.44;;;-145.17;73.54
32759;BME280;19125;52.360;9.974;2023-02-19T07:48:38;-15010.44;;;-145.17;73.52
32759;BME280;19125;52.360;9.974;2023-02-19T07:51:05;-15010.44;;;-145.17;73.52
32759;BME280;19125;52.360;9.974;2023-02-19T07:53:32;-15010.44;;;-145.17;73.74
32759;BME280;19125;52.360;9.974;2023-02-19T07:56:03;-15010.44;;;-145.17;73.43
32759;BME280;19125;52.360;9.974;2023-02-19T07:58:29;-15010.44;;;-145.17;73.52
32759;BME280;19125;52.360;9.974;2023-02-19T08:00:55;-15010.44;;;-145.17;73.41
32759;BME280;19125;52.360;9.974;2023-02-19T08:03:20;-15010.44;;;-145.17;73.44
32759;BME280;19125;52.360;9.974;2023-02-19T08:05:46;-15010.44;;;-145.17;73.19
32759;BME280;19125;52.360;9.974;2023-02-19T08:08:17;-15010.44;;;-145.17;73.21
32759;BME280;19125;52.360;9.974;2023-02-19T08:10:43;-15010.44;;;-145.17;72.97
32759;BME280;19125;52.360;9.974;2023-02-19T08:13:28;-15010.44;;;-145.17;72.88
32759;BME280;19125;52.360;9.974;2023-02-19T08:18:27;-15010.44;;;-145.17;72.31
32759;BME280;19125;52.360;9.974;2023-02-19T08:20:56;-15010.44;;;-145.17;72.10
32759;BME280;19125;52.360;9.974;2023-02-19T08:23:22;-15010.44;;;-145.17;72.26
32759;BME280;19125;52.360;9.974;2023-02-19T08:25:50;-15010.44;;;-145.17;71.97
32759;BME280;19125;52.360;9.974;2023-02-19T08:28:16;-15010.44;;;-145.17;71.97
32759;BME280;19125;52.360;9.974;2023-02-19T08:30:44;-15010.44;;;-145.17;71.97
32759;BME280;19125;52.360;9.974;2023-02-19T08:33:12;-15010.44;;;-145.17;71.42
32759;BME280;19125;52.360;9.974;2023-02-19T08:35:38;-15010.44;;;-145.17;71.53
32759;BME280;19125;52.360;9.974;2023-02-19T08:38:05;-15010.44;;;-145.17;71.54
32759;BME280;19125;52.360;9.974;2023-02-19T08:40:31;-15010.44;;;-145.17;71.30
32759;BME280;19125;52.360;9.974;2023-02-19T08:43:04;-15010.44;;;-145.17;70.93
32759;BME280;19125;52.360;9.974;2023-02-19T08:45:31;-15010.44;;;-145.17;70.78
32759;BME280;19125;52.360;9.974;2023-02-19T08:47:56;-15010.44;;;-145.17;70.50
32759;BME280;19125;52.360;9.974;2023-02-19T08:50:22;-15010.44;;;-145.17;70.23
32759;BME280;19125;52.360;9.974;2023-02-19T08:52:47;-15009.00;;;-145.17;70.38
32759;BME280;19125;52.360;9.974;2023-02-19T08:55:13;-14761.44;;;-145.17;70.24
32759;BME280;19125;52.360;9.974;2023-02-19T08:57:38;-14513.88;;;-145.17;69.71
32759;BME280;19125;52.360;9.974;2023-02-19T09:00:05;-14018.72;;;-145.17;69.73
32759;BME280;19125;52.360;9.974;2023-02-19T09:02:31;-13771.13;;;-145.17;69.53
32759;BME280;19125;52.360;9.974;2023-02-19T09:04:57;-13523.50;;;-145.17;69.57
32759;BME280;19125;52.360;9.974;2023-02-19T09:07:22;-12780.53;;;-145.17;69.15
32759;BME280;19125;52.360;9.974;2023-02-19T09:09:51;-11789.69;;;-145.17;68.67
32759;BME280;19125;52.360;9.974;2023-02-19T09:12:22;-10302.97;;;-145.17;68.29
32759;BME280;19125;52.360;9.974;2023-02-19T09:14:47;-9311.50;;;-145.17;68.11
32759;BME280;19125;52.360;9.974;2023-02-19T09:17:13;-7823.78;;;-145.17;68.07
32759;BME280;19125;52.360;9.974;2023-02-19T09:19:38;-7079.72;;;-145.17;68.01
32759;BME280;19125;52.360;9.974;2023-02-19T09:22:04;-5591.16;;;-145.17;67.49
32759;BME280;19125;52.360;9.974;2023-02-19T09:24:30;-3357.22;;;-145.17;67.06
32759;BME280;19125;52.360;9.974;2023-02-19T09:26:56;-1122.00;;;-145.17;66.91
32759;BME280;19125;52.360;9.974;2023-02-19T09:29:23;617.41;;;-145.17;66.47
32759;BME280;19125;52.360;9.974;2023-02-19T09:31:49;2108.97;;;-145.17;66.17
32759;BME280;19125;52.360;9.974;2023-02-19T09:34:14;4098.59;;;-145.17;66.27
32759;BME280;19125;52.360;9.974;2023-02-19T09:36:40;5591.47;;;-145.17;65.56
32759;BME280;19125;52.360;9.974;2023-02-19T09:39:07;6836.00;;;-145.17;65.86
32759;BME280;19125;52.360;9.974;2023-02-19T09:41:38;8579.00;;;-145.17;65.27
32759;BME280;19125;52.360;9.974;2023-02-19T09:44:11;10322.78;;;-145.17;64.78
32759;BME280;19125;52.360;9.974;2023-02-19T09:46:48;15558.84;;;-145.17;64.12
32759;BME280;19125;52.360;9.974;2023-02-19T09:49:16;19053.47;;;-145.17;63.67
32759;BME280;19125;52.360;9.974;2023-02-19T09:51:49;22551.25;;;-145.17;63.74
32759;BME280;19125;52.360;9.974;2023-02-19T09:54:26;27553.50;;;-145.17;62.76
32759;BME280;19125;52.360;9.974;2023-02-19T09:56:54;34567.47;;;-145.17;62.11
32759;BME280;19125;52.360;9.974;2023-02-19T09:59:23;43101.28;;;-145.17;61.65
32759;BME280;19125;52.360;9.974;2023-02-19T10:01:56;45866.22;;;-145.17;61.55
32759;BME280;19125;52.360;9.974;2023-02-19T10:04:23;50143.06;;;-145.17;61.00
32759;BME280;19125;52.360;9.974;2023-02-19T10:06:50;51905.47;;;-145.17;60.94
32759;BME280;19125;52.360;9.974;2023-02-19T10:09:22;52661.03;;;-145.17;60.77
32759;BME280;19125;52.360;9.974;2023-02-19T10:11:57;59719.84;;;-145.17;59.80
32759;BME280;19125;52.360;9.974;2023-02-19T10:14:49;69884.97;;;-145.17;59.36
32759;BME280;19125;52.360;9.974;2023-02-19T10:17:22;76402.28;;;-145.17;58.56
32759;BME280;19125;52.360;9.974;2023-02-19T10:19:49;75367.13;;;-145.17;59.21
32759;BME280;19125;52.360;9.974;2023-02-19T10:22:15;75782.75;;;-145.17;59.10
32759;BME280;19125;52.360;9.974;2023-02-19T10:24:42;80131.53;;;-145.17;58.07
32759;BME280;19125;52.360;9.974;2023-02-19T10:27:12;84830.16;;;-145.17;57.60
32759;BME280;19125;52.360;9.974;2023-02-19T10:29:38;85274.53;;;-145.17;57.40
32759;BME280;19125;52.360;9.974;2023-02-19T10:32:21;84784.53;;;-145.17;57.63
32759;BME280;19125;52.360;9.974;2023-02-19T10:37:31;86143.59;;;-145.17;57.12
32759;BME280;19125;52.360;9.974;2023-02-19T10:39:56;86064.22;;;-145.17;57.16
32759;BME280;19125;52.360;9.974;2023-02-19T10:42:22;86560.34;;;-145.17;56.96
32759;BME280;19125;52.360;9.974;2023-02-19T10:44:57;87370.13;;;-145.17;56.22
32759;BME280;19125;52.360;9.974;2023-02-19T10:47:27;87576.56;;;-145.17;56.33
32759;BME280;19125;52.360;9.974;2023-02-19T10:49:56;87576.56;;;-145.17;56.13
32759;BME280;19125;52.360;9.974;2023-02-19T10:54:51;87775.06;;;-145.17;55.39
32759;BME280;19125;52.360;9.974;2023-02-19T10:59:53;87580.53;;;-145.17;55.70
32759;BME280;19125;52.360;9.974;2023-02-19T11:02:22;87876.31;;;-145.17;55.32
32759;BME280;19125;52.360;9.974;2023-02-19T11:05:20;88031.16;;;-145.17;55.25
32759;BME280;19125;52.360;9.974;2023-02-19T11:07:51;88047.06;;;-145.17;55.11
32759;BME280;19125;52.360;9.974;2023-02-19T11:10:29;88114.56;;;-145.17;54.09
32759;BME280;19125;52.360;9.974;2023-02-19T11:12:59;88056.97;;;-145.17;53.85
32759;BME280;19125;52.360;9.974;2023-02-19T11:15:31;87959.69;;;-145.17;54.24
32759;BME280;19125;52.360;9.974;2023-02-19T11:20:59;88120.50;;;-145.17;53.53
32759;BME280;19125;52.360;9.974;2023-02-19T11:23:31;88080.81;;;-145.17;52.54
32759;BME280;19125;52.360;9.974;2023-02-19T11:26:01;88098.66;;;-145.17;53.05
32759;BME280;19125;52.360;9.974;2023-02-19T11:28:34;88035.13;;;-145.17;53.09
32759;BME280;19125;52.360;9.974;2023-02-19T11:31:24;88029.19;;;-145.17;52.81
32759;BME280;19125;52.360;9.974;2023-02-19T11:38:47;88021.25;;;-145.17;51.26
32759;BME280;19125;52.360;9.974;2023-02-19T11:42:01;88029.19;;;-145.17;51.64
32759;BME280;19125;52.360;9.974;2023-02-19T11:55:51;87937.88;;;-145.17;49.54
32759;BME280;19125;52.360;9.974;2023-02-19T12:04:52;87937.88;;;-145.17;49.90
32759;BME280;19125;52.360;9.974;2023-02-19T12:10:22;87848.53;;;-145.17;49.25
32759;BME280;19125;52.360;9.974;2023-02-19T12:13:06;87836.63;;;-145.17;48.97
32759;BME280;19125;52.360;9.974;2023-02-19T12:16:30;87763.16;;;-145.17;47.46
32759;BME280;19125;52.360;9.974;2023-02-19T12:21:21;87707.59;;;-145.17;47.44
32759;BME280;19125;52.360;9.974;2023-02-19T12:29:19;87600.38;;;-145.17;46.60
32759;BME280;19125;52.360;9.974;2023-02-19T12:39:44;87395.94;;;-145.17;42.92
32759;BME280;19125;52.360;9.974;2023-02-19T12:42:39;87405.84;;;-145.17;43.08
32759;BME280;19125;52.360;9.974;2023-02-19T12:45:18;87473.34;;;-145.17;42.53
32759;BME280;19125;52.360;9.974;2023-02-19T12:50:40;87368.13;;;-145.17;43.07
32759;BME280;19125;52.360;9.974;2023-02-19T12:53:31;87368.13;;;-145.17;42.58
32759;BME280;19125;52.360;9.974;2023-02-19T12:56:00;87332.41;;;-145.17;43.31
32759;BME280;19125;52.360;9.974;2023-02-19T12:58:34;87415.78;;;-145.17;42.93
32759;BME280;19125;52.360;9.974;2023-02-19T13:01:02;87399.91;;;-145.17;42.93
32759;BME280;19125;52.360;9.974;2023-02-19T13:08:40;87433.66;;;-145.17;42.17
32759;BME280;19125;52.360;9.974;2023-02-19T13:11:27;87493.19;;;-145.17;43.19
32759;BME280;19125;52.360;9.974;2023-02-19T13:13:56;87509.06;;;-145.17;44.17
32759;BME280;19125;52.360;9.974;2023-02-19T13:16:24;87570.59;;;-145.17;44.11
32759;BME280;19125;52.360;9.974;2023-02-19T13:18:57;87528.91;;;-145.17;44.31
32759;BME280;19125;52.360;9.974;2023-02-19T13:21:25;87515.03;;;-145.17;44.34
32759;BME280;19125;52.360;9.974;2023-02-19T13:24:15;87552.75;;;-145.17;44.47
32759;BME280;19125;52.360;9.974;2023-02-19T13:38:02;87370.13;;;-145.17;41.58
32759;BME280;19125;52.360;9.974;2023-02-19T13:40:34;87336.38;;;-145.17;41.17
32759;BME280;19125;52.360;9.974;2023-02-19T13:43:05;87330.44;;;-145.17;41.41
32759;BME280;19125;52.360;9.974;2023-02-19T13:45:42;87306.59;;;-145.17;42.17
32759;BME280;19125;52.360;9.974;2023-02-19T13:48:28;87342.34;;;-145.17;42.03
32759;BME280;19125;52.360;9.974;2023-02-19T13:53:57;87316.53;;;-145.17;41.55
32759;BME280;19125;52.360;9.974;2023-02-19T13:59:24;87336.38;;;-145.17;41.46
32759;BME280;19125;52.360;9.974;2023-02-19T14:04:24;87362.19;;;-145.17;42.00
32759;BME280;19125;52.360;9.974;2023-02-19T14:14:56;87320.50;;;-145.17;41.29
32759;BME280;19125;52.360;9.974;2023-02-19T14:17:42;87320.50;;;-145.17;41.25
32759;BME280;19125;52.360;9.974;2023-02-19T14:27:51;87334.41;;;-145.17;41.27
32759;BME280;19125;52.360;9.974;2023-02-19T14:30:17;87368.13;;;-145.17;41.59
32759;BME280;19125;52.360;9.974;2023-02-19T14:32:45;87342.34;;;-145.17;41.61
32759;BME280;19125;52.360;9.974;2023-02-19T14:35:20;87413.78;;;-145.17;42.23
32759;BME280;19125;52.360;9.974;2023-02-19T14:37:47;87417.75;;;-145.17;42.27
32759;BME280;19125;52.360;9.974;2023-02-19T14:40:21;87433.66;;;-145.17;42.79
32759;BME280;19125;52.360;9.974;2023-02-19T14:42:50;87415.78;;;-145.17;42.64
32759;BME280;19125;52.360;9.974;2023-02-19T14:45:17;87423.72;;;-145.17;42.77
32759;BME280;19125;52.360;9.974;2023-02-19T14:47:44;87439.59;;;-145.17;42.36
32759;BME280;19125;52.360;9.974;2023-02-19T14:50:27;87344.31;;;-145.17;41.71